Roanoke, VA (24004)

5:07 AM EST on February 10, 2016 (GMT -0500)
APRSWXNET | | Change Station
CLOSE
Current Station
Personal Weather Station
Location: Roanoke, VA
Elevation: 941 ft
Nearby Weather Stations
Active Advisory: Wind Chill Advisory

Elev 941 ft 37.27 °N, 79.94 °W | Updated 19 minutes ago

Mostly Cloudy
Mostly Cloudy
25 °F
Feels Like 20 °F
N
4
Wind Variable Wind from West
Gusts 11.0 mph

Today
High -- | Low -- °F
--% Chance of Precip.
Yesterday
High -- | Low -- °F
Precip. -- in
Pressure 29.84 in
Visibility 10.0 miles
Clouds Mostly Cloudy 3500 ft
Windchill 20 °F
Dew Point 13 °F
Humidity 60%
Rainfall in
Snow Depth Not available.
7:14 AM 5:53 PM
Waxing Crescent, 4% visible
METAR KROA 100954Z 30016G24KT 10SM BKN035 M04/M12 A2981 RMK AO2 SLP105 T10441117
Pressure 29.84 in
Visibility 10.0 miles
Clouds Mostly Cloudy 3500 ft
Windchill 20 °F
Dew Point 13 °F
Humidity 60%
Rainfall in
Snow Depth Not available.
7:14 AM 5:53 PM
Waxing Crescent, 4% visible
METAR KROA 100954Z 30016G24KT 10SM BKN035 M04/M12 A2981 RMK AO2 SLP105 T10441117

10-Day Weather Forecast

Almanac

Astronomy

Feb. 10, 2016 Rise Set
Actual Time
Civil Twilight
Nautical Twilight
Astronomical Twilight
Moon
Length of Visible Light
Length of Day
Tomorrow will be .
, % of the Moon is Illuminated

Today's Extremes

State Highs State Lows

Community

WunderPhotos

Upload Photos

1,891,828 photos uploaded!

WunderBlog® & News

Nearby

Air Quality

  Air Quality AQ Index Pollutant
Not available.

Snow Depth

Station Depth Elevation

Earthquake Activity

City Distance Mag. Time & Date
Minimum magnitude displayed is 2.5.

Coastal Water Temperatures

Place Temperature

Stations

Nearby Weather Stations

Station Location Temp. Windchill Dew Point Humidity Wind Precip. Elev Updated Type
                   

Watches & Warnings

Wind Chill Advisory
Issued: 3:28 AM EST Feb. 10, 2016 – National Weather Service

... Wind Chill Advisory in effect from midnight tonight to 10 am
EST Thursday...

The National Weather Service in Blacksburg has issued a Wind
Chill Advisory... which is in effect from midnight tonight to
10 am EST Thursday.

* Locations... along a west of Blue Ridge mountains.

* Hazard types... wind chill readings.

* Wind chill readings... less than 5 degrees below zero.

* Timing... tonight into Thursday morning.

* Impacts... wind chill values of less than 5
degrees below zero will make it dangerous to be outside.

* Winds... northwest winds 10 to 20 mph with gusts up to 35 mph.

* Temperatures... lows tonight from 7 to the teens.

Precautionary/preparedness actions...

A Wind Chill Advisory means that very cold air and strong winds
will combine to generate low wind chills. This will result in
frost bite and lead to hypothermia if precautions are not taken.
If you must venture outdoors... make sure you wear a hat and
gloves.